sensor_id;sensor_type;location;lat;lon;timestamp;P1;durP1;ratioP1;P2;durP2;ratioP2
26822;SDS011;14852;51.910;8.878;2022-11-20T00:01:23;13.98;;;8.27;;
26822;SDS011;14852;51.910;8.878;2022-11-20T00:03:51;13.02;;;8.95;;
26822;SDS011;14852;51.910;8.878;2022-11-20T00:06:19;14.30;;;8.82;;
26822;SDS011;14852;51.910;8.878;2022-11-20T00:08:47;12.38;;;8.60;;
26822;SDS011;14852;51.910;8.878;2022-11-20T00:11:15;11.55;;;8.07;;
26822;SDS011;14852;51.910;8.878;2022-11-20T00:13:47;12.02;;;8.13;;
26822;SDS011;14852;51.910;8.878;2022-11-20T00:16:17;11.93;;;8.15;;
26822;SDS011;14852;51.910;8.878;2022-11-20T00:18:47;12.73;;;8.02;;
26822;SDS011;14852;51.910;8.878;2022-11-20T00:21:15;13.20;;;7.28;;
26822;SDS011;14852;51.910;8.878;2022-11-20T00:23:46;13.48;;;7.32;;
26822;SDS011;14852;51.910;8.878;2022-11-20T00:26:14;13.00;;;7.75;;
26822;SDS011;14852;51.910;8.878;2022-11-20T00:28:48;10.90;;;7.13;;
26822;SDS011;14852;51.910;8.878;2022-11-20T00:31:18;10.50;;;6.90;;
26822;SDS011;14852;51.910;8.878;2022-11-20T00:33:45;9.95;;;6.70;;
26822;SDS011;14852;51.910;8.878;2022-11-20T00:36:13;10.52;;;6.38;;
26822;SDS011;14852;51.910;8.878;2022-11-20T00:38:41;11.35;;;8.05;;
26822;SDS011;14852;51.910;8.878;2022-11-20T00:41:10;10.57;;;7.35;;
26822;SDS011;14852;51.910;8.878;2022-11-20T00:43:38;9.93;;;6.88;;
26822;SDS011;14852;51.910;8.878;2022-11-20T00:46:06;11.07;;;7.43;;
26822;SDS011;14852;51.910;8.878;2022-11-20T00:48:41;8.75;;;6.25;;
26822;SDS011;14852;51.910;8.878;2022-11-20T00:51:07;10.68;;;7.60;;
26822;SDS011;14852;51.910;8.878;2022-11-20T00:53:38;12.25;;;8.27;;
26822;SDS011;14852;51.910;8.878;2022-11-20T00:56:05;10.90;;;7.55;;
26822;SDS011;14852;51.910;8.878;2022-11-20T00:58:35;14.90;;;9.52;;
26822;SDS011;14852;51.910;8.878;2022-11-20T01:03:35;13.20;;;7.65;;
26822;SDS011;14852;51.910;8.878;2022-11-20T01:06:04;12.60;;;6.57;;
26822;SDS011;14852;51.910;8.878;2022-11-20T01:08:40;9.48;;;6.80;;
26822;SDS011;14852;51.910;8.878;2022-11-20T01:11:07;12.23;;;7.18;;
26822;SDS011;14852;51.910;8.878;2022-11-20T01:13:37;9.70;;;6.18;;
26822;SDS011;14852;51.910;8.878;2022-11-20T01:16:11;10.82;;;6.97;;
26822;SDS011;14852;51.910;8.878;2022-11-20T01:18:43;10.05;;;6.32;;
26822;SDS011;14852;51.910;8.878;2022-11-20T01:21:12;7.53;;;6.07;;
26822;SDS011;14852;51.910;8.878;2022-11-20T01:23:42;9.38;;;6.20;;
26822;SDS011;14852;51.910;8.878;2022-11-20T01:26:10;8.38;;;6.00;;
26822;SDS011;14852;51.910;8.878;2022-11-20T01:28:40;8.55;;;5.43;;
26822;SDS011;14852;51.910;8.878;2022-11-20T01:31:11;7.65;;;5.63;;
26822;SDS011;14852;51.910;8.878;2022-11-20T01:34:04;7.40;;;5.35;;
26822;SDS011;14852;51.910;8.878;2022-11-20T01:36:32;8.38;;;6.63;;
26822;SDS011;14852;51.910;8.878;2022-11-20T01:39:01;9.27;;;5.75;;
26822;SDS011;14852;51.910;8.878;2022-11-20T01:41:42;9.68;;;5.35;;
26822;SDS011;14852;51.910;8.878;2022-11-20T01:44:46;7.93;;;5.40;;
26822;SDS011;14852;51.910;8.878;2022-11-20T01:47:20;9.30;;;5.90;;
26822;SDS011;14852;51.910;8.878;2022-11-20T01:50:14;11.18;;;6.22;;
26822;SDS011;14852;51.910;8.878;2022-11-20T01:52:52;9.60;;;5.90;;
26822;SDS011;14852;51.910;8.878;2022-11-20T01:55:23;11.27;;;7.07;;
26822;SDS011;14852;51.910;8.878;2022-11-20T01:57:54;9.65;;;6.88;;
26822;SDS011;14852;51.910;8.878;2022-11-20T02:00:21;9.57;;;5.40;;
26822;SDS011;14852;51.910;8.878;2022-11-20T02:02:48;6.80;;;4.78;;
26822;SDS011;14852;51.910;8.878;2022-11-20T02:07:56;9.32;;;4.43;;
26822;SDS011;14852;51.910;8.878;2022-11-20T02:10:23;7.65;;;4.13;;
26822;SDS011;14852;51.910;8.878;2022-11-20T02:12:52;9.20;;;4.35;;
26822;SDS011;14852;51.910;8.878;2022-11-20T02:15:37;6.00;;;4.13;;
26822;SDS011;14852;51.910;8.878;2022-11-20T02:18:03;6.65;;;4.53;;
26822;SDS011;14852;51.910;8.878;2022-11-20T02:20:30;7.40;;;4.50;;
26822;SDS011;14852;51.910;8.878;2022-11-20T02:22:58;5.95;;;4.47;;
26822;SDS011;14852;51.910;8.878;2022-11-20T02:25:41;11.27;;;7.40;;
26822;SDS011;14852;51.910;8.878;2022-11-20T02:28:07;7.93;;;5.85;;
26822;SDS011;14852;51.910;8.878;2022-11-20T02:30:34;9.55;;;5.75;;
26822;SDS011;14852;51.910;8.878;2022-11-20T02:33:00;11.60;;;7.38;;
26822;SDS011;14852;51.910;8.878;2022-11-20T02:37:53;9.02;;;6.18;;
26822;SDS011;14852;51.910;8.878;2022-11-20T02:40:21;13.02;;;7.18;;
26822;SDS011;14852;51.910;8.878;2022-11-20T02:42:47;9.68;;;6.88;;
26822;SDS011;14852;51.910;8.878;2022-11-20T02:48:42;9.18;;;5.90;;
26822;SDS011;14852;51.910;8.878;2022-11-20T02:51:08;7.85;;;5.38;;
26822;SDS011;14852;51.910;8.878;2022-11-20T02:53:34;9.30;;;6.25;;
26822;SDS011;14852;51.910;8.878;2022-11-20T02:55:59;10.30;;;7.25;;
26822;SDS011;14852;51.910;8.878;2022-11-20T02:58:25;9.50;;;5.63;;
26822;SDS011;14852;51.910;8.878;2022-11-20T03:00:51;9.57;;;5.55;;
26822;SDS011;14852;51.910;8.878;2022-11-20T03:03:17;8.23;;;6.15;;
26822;SDS011;14852;51.910;8.878;2022-11-20T03:05:43;8.10;;;5.25;;
26822;SDS011;14852;51.910;8.878;2022-11-20T03:08:09;8.50;;;5.13;;
26822;SDS011;14852;51.910;8.878;2022-11-20T03:10:39;8.27;;;6.05;;
26822;SDS011;14852;51.910;8.878;2022-11-20T03:13:05;8.25;;;5.65;;
26822;SDS011;14852;51.910;8.878;2022-11-20T03:15:31;11.70;;;5.63;;
26822;SDS011;14852;51.910;8.878;2022-11-20T03:17:57;8.48;;;5.32;;
26822;SDS011;14852;51.910;8.878;2022-11-20T03:20:23;8.45;;;5.78;;
26822;SDS011;14852;51.910;8.878;2022-11-20T03:22:49;8.25;;;5.25;;
26822;SDS011;14852;51.910;8.878;2022-11-20T03:25:15;9.50;;;6.03;;
26822;SDS011;14852;51.910;8.878;2022-11-20T03:27:41;9.25;;;6.35;;
26822;SDS011;14852;51.910;8.878;2022-11-20T03:30:07;9.30;;;6.10;;
26822;SDS011;14852;51.910;8.878;2022-11-20T03:32:33;9.30;;;6.05;;
26822;SDS011;14852;51.910;8.878;2022-11-20T03:34:59;9.82;;;6.72;;
26822;SDS011;14852;51.910;8.878;2022-11-20T03:37:25;11.90;;;7.20;;
26822;SDS011;14852;51.910;8.878;2022-11-20T03:39:51;9.45;;;6.50;;
26822;SDS011;14852;51.910;8.878;2022-11-20T03:42:16;12.48;;;6.53;;
26822;SDS011;14852;51.910;8.878;2022-11-20T03:45:00;7.93;;;5.00;;
26822;SDS011;14852;51.910;8.878;2022-11-20T03:47:26;7.78;;;5.28;;
26822;SDS011;14852;51.910;8.878;2022-11-20T03:49:52;7.38;;;4.60;;
26822;SDS011;14852;51.910;8.878;2022-11-20T03:52:18;6.43;;;4.93;;
26822;SDS011;14852;51.910;8.878;2022-11-20T03:54:44;9.13;;;4.75;;
26822;SDS011;14852;51.910;8.878;2022-11-20T03:57:09;7.10;;;4.85;;
26822;SDS011;14852;51.910;8.878;2022-11-20T03:59:35;7.78;;;4.55;;
26822;SDS011;14852;51.910;8.878;2022-11-20T04:02:01;10.23;;;5.95;;
26822;SDS011;14852;51.910;8.878;2022-11-20T04:04:27;8.90;;;5.72;;
26822;SDS011;14852;51.910;8.878;2022-11-20T04:06:52;11.60;;;6.97;;
26822;SDS011;14852;51.910;8.878;2022-11-20T04:09:18;11.40;;;7.65;;
26822;SDS011;14852;51.910;8.878;2022-11-20T04:11:44;9.68;;;6.95;;
26822;SDS011;14852;51.910;8.878;2022-11-20T04:14:13;10.65;;;7.45;;
26822;SDS011;14852;51.910;8.878;2022-11-20T04:16:40;8.57;;;5.70;;
26822;SDS011;14852;51.910;8.878;2022-11-20T04:19:09;10.20;;;6.68;;
26822;SDS011;14852;51.910;8.878;2022-11-20T04:21:38;9.15;;;5.88;;
26822;SDS011;14852;51.910;8.878;2022-11-20T04:24:04;7.80;;;5.10;;
26822;SDS011;14852;51.910;8.878;2022-11-20T04:26:30;8.40;;;5.07;;
26822;SDS011;14852;51.910;8.878;2022-11-20T04:28:56;7.28;;;4.97;;
26822;SDS011;14852;51.910;8.878;2022-11-20T04:31:26;8.35;;;5.22;;
26822;SDS011;14852;51.910;8.878;2022-11-20T04:33:54;7.22;;;5.45;;
26822;SDS011;14852;51.910;8.878;2022-11-20T04:36:24;8.98;;;5.20;;
26822;SDS011;14852;51.910;8.878;2022-11-20T04:38:52;8.55;;;5.15;;
26822;SDS011;14852;51.910;8.878;2022-11-20T04:41:21;9.45;;;7.00;;
26822;SDS011;14852;51.910;8.878;2022-11-20T04:43:50;11.35;;;7.30;;
26822;SDS011;14852;51.910;8.878;2022-11-20T04:46:19;10.90;;;7.03;;
26822;SDS011;14852;51.910;8.878;2022-11-20T04:48:46;11.75;;;7.05;;
26822;SDS011;14852;51.910;8.878;2022-11-20T04:51:12;12.20;;;8.60;;
26822;SDS011;14852;51.910;8.878;2022-11-20T04:53:38;9.75;;;7.05;;
26822;SDS011;14852;51.910;8.878;2022-11-20T04:56:05;13.05;;;8.80;;
26822;SDS011;14852;51.910;8.878;2022-11-20T04:58:34;9.00;;;6.78;;
26822;SDS011;14852;51.910;8.878;2022-11-20T05:01:20;11.82;;;6.63;;
26822;SDS011;14852;51.910;8.878;2022-11-20T05:03:48;11.10;;;7.75;;
26822;SDS011;14852;51.910;8.878;2022-11-20T05:06:15;9.27;;;6.40;;
26822;SDS011;14852;51.910;8.878;2022-11-20T05:08:43;12.50;;;8.35;;
26822;SDS011;14852;51.910;8.878;2022-11-20T05:11:10;10.50;;;7.20;;
26822;SDS011;14852;51.910;8.878;2022-11-20T05:13:46;12.52;;;6.90;;
26822;SDS011;14852;51.910;8.878;2022-11-20T05:16:13;12.00;;;7.75;;
26822;SDS011;14852;51.910;8.878;2022-11-20T05:18:45;10.10;;;6.65;;
26822;SDS011;14852;51.910;8.878;2022-11-20T05:21:12;8.07;;;6.15;;
26822;SDS011;14852;51.910;8.878;2022-11-20T05:23:39;11.00;;;6.05;;
26822;SDS011;14852;51.910;8.878;2022-11-20T05:26:07;10.10;;;7.05;;
26822;SDS011;14852;51.910;8.878;2022-11-20T05:28:37;10.43;;;6.45;;
26822;SDS011;14852;51.910;8.878;2022-11-20T05:31:07;9.35;;;7.00;;
26822;SDS011;14852;51.910;8.878;2022-11-20T05:33:42;10.43;;;6.90;;
26822;SDS011;14852;51.910;8.878;2022-11-20T05:36:09;10.50;;;7.78;;
26822;SDS011;14852;51.910;8.878;2022-11-20T05:38:37;10.90;;;8.15;;
26822;SDS011;14852;51.910;8.878;2022-11-20T05:41:05;13.93;;;8.27;;
26822;SDS011;14852;51.910;8.878;2022-11-20T05:43:36;10.18;;;7.70;;
26822;SDS011;14852;51.910;8.878;2022-11-20T05:46:05;14.38;;;8.50;;
26822;SDS011;14852;51.910;8.878;2022-11-20T05:48:32;12.95;;;7.90;;
26822;SDS011;14852;51.910;8.878;2022-11-20T05:51:02;16.60;;;9.35;;
26822;SDS011;14852;51.910;8.878;2022-11-20T05:53:30;13.73;;;9.63;;
26822;SDS011;14852;51.910;8.878;2022-11-20T05:55:59;13.85;;;8.98;;
26822;SDS011;14852;51.910;8.878;2022-11-20T05:58:34;18.77;;;11.38;;
26822;SDS011;14852;51.910;8.878;2022-11-20T06:01:05;14.65;;;9.02;;
26822;SDS011;14852;51.910;8.878;2022-11-20T06:03:35;18.60;;;10.82;;
26822;SDS011;14852;51.910;8.878;2022-11-20T06:06:02;14.98;;;9.68;;
26822;SDS011;14852;51.910;8.878;2022-11-20T06:08:29;15.35;;;9.93;;
26822;SDS011;14852;51.910;8.878;2022-11-20T06:10:56;13.43;;;9.40;;
26822;SDS011;14852;51.910;8.878;2022-11-20T06:13:22;14.10;;;9.52;;
26822;SDS011;14852;51.910;8.878;2022-11-20T06:15:52;17.17;;;10.98;;
26822;SDS011;14852;51.910;8.878;2022-11-20T06:18:18;16.35;;;10.20;;
26822;SDS011;14852;51.910;8.878;2022-11-20T06:20:45;15.07;;;9.63;;
26822;SDS011;14852;51.910;8.878;2022-11-20T06:23:11;18.85;;;10.20;;
26822;SDS011;14852;51.910;8.878;2022-11-20T06:25:38;15.45;;;9.63;;
26822;SDS011;14852;51.910;8.878;2022-11-20T06:28:05;15.60;;;11.90;;
26822;SDS011;14852;51.910;8.878;2022-11-20T06:30:31;16.35;;;10.32;;
26822;SDS011;14852;51.910;8.878;2022-11-20T06:32:57;14.85;;;9.52;;
26822;SDS011;14852;51.910;8.878;2022-11-20T06:35:23;16.08;;;9.77;;
26822;SDS011;14852;51.910;8.878;2022-11-20T06:37:49;15.27;;;8.48;;
26822;SDS011;14852;51.910;8.878;2022-11-20T06:40:14;11.13;;;7.88;;
26822;SDS011;14852;51.910;8.878;2022-11-20T06:42:40;13.63;;;7.68;;
26822;SDS011;14852;51.910;8.878;2022-11-20T06:45:06;12.60;;;8.05;;
26822;SDS011;14852;51.910;8.878;2022-11-20T06:47:33;13.80;;;8.30;;
26822;SDS011;14852;51.910;8.878;2022-11-20T06:49:58;15.75;;;8.00;;
26822;SDS011;14852;51.910;8.878;2022-11-20T06:52:24;13.32;;;7.32;;
26822;SDS011;14852;51.910;8.878;2022-11-20T06:54:50;14.27;;;9.60;;
26822;SDS011;14852;51.910;8.878;2022-11-20T06:57:16;15.05;;;9.90;;
26822;SDS011;14852;51.910;8.878;2022-11-20T06:59:41;17.33;;;10.10;;
26822;SDS011;14852;51.910;8.878;2022-11-20T07:02:09;14.73;;;9.95;;
26822;SDS011;14852;51.910;8.878;2022-11-20T07:04:36;14.60;;;9.60;;
26822;SDS011;14852;51.910;8.878;2022-11-20T07:07:03;13.77;;;8.85;;
26822;SDS011;14852;51.910;8.878;2022-11-20T07:09:30;15.05;;;8.73;;
26822;SDS011;14852;51.910;8.878;2022-11-20T07:11:56;16.17;;;10.43;;
26822;SDS011;14852;51.910;8.878;2022-11-20T07:14:21;24.15;;;13.77;;
26822;SDS011;14852;51.910;8.878;2022-11-20T07:16:47;38.58;;;22.27;;
26822;SDS011;14852;51.910;8.878;2022-11-20T07:19:13;30.73;;;17.55;;
26822;SDS011;14852;51.910;8.878;2022-11-20T07:21:39;24.42;;;15.13;;
26822;SDS011;14852;51.910;8.878;2022-11-20T07:24:04;24.38;;;13.15;;
26822;SDS011;14852;51.910;8.878;2022-11-20T07:26:30;16.50;;;10.43;;
26822;SDS011;14852;51.910;8.878;2022-11-20T07:28:56;16.55;;;10.00;;
26822;SDS011;14852;51.910;8.878;2022-11-20T07:31:22;21.75;;;12.20;;
26822;SDS011;14852;51.910;8.878;2022-11-20T07:33:47;16.83;;;9.68;;
26822;SDS011;14852;51.910;8.878;2022-11-20T07:36:13;16.75;;;10.57;;
26822;SDS011;14852;51.910;8.878;2022-11-20T07:38:39;14.52;;;8.98;;
26822;SDS011;14852;51.910;8.878;2022-11-20T07:41:05;16.90;;;9.68;;
26822;SDS011;14852;51.910;8.878;2022-11-20T07:43:31;19.90;;;10.07;;
26822;SDS011;14852;51.910;8.878;2022-11-20T07:45:57;14.35;;;9.68;;
26822;SDS011;14852;51.910;8.878;2022-11-20T07:48:24;14.38;;;8.48;;
26822;SDS011;14852;51.910;8.878;2022-11-20T07:50:56;13.63;;;9.23;;
26822;SDS011;14852;51.910;8.878;2022-11-20T07:53:23;11.52;;;7.60;;
26822;SDS011;14852;51.910;8.878;2022-11-20T07:55:49;18.15;;;11.60;;
26822;SDS011;14852;51.910;8.878;2022-11-20T07:58:17;14.77;;;9.57;;
26822;SDS011;14852;51.910;8.878;2022-11-20T08:00:45;14.63;;;8.38;;
26822;SDS011;14852;51.910;8.878;2022-11-20T08:03:11;14.75;;;9.25;;
26822;SDS011;14852;51.910;8.878;2022-11-20T08:05:37;15.48;;;8.90;;
26822;SDS011;14852;51.910;8.878;2022-11-20T08:08:03;17.73;;;9.35;;
26822;SDS011;14852;51.910;8.878;2022-11-20T08:10:29;14.27;;;8.23;;
26822;SDS011;14852;51.910;8.878;2022-11-20T08:12:57;16.58;;;10.02;;
26822;SDS011;14852;51.910;8.878;2022-11-20T08:15:41;13.50;;;9.57;;
26822;SDS011;14852;51.910;8.878;2022-11-20T08:18:16;13.88;;;8.65;;
26822;SDS011;14852;51.910;8.878;2022-11-20T08:20:42;13.75;;;8.25;;
26822;SDS011;14852;51.910;8.878;2022-11-20T08:23:09;14.65;;;8.88;;
26822;SDS011;14852;51.910;8.878;2022-11-20T08:25:36;14.48;;;7.88;;
26822;SDS011;14852;51.910;8.878;2022-11-20T08:28:07;13.98;;;9.77;;
26822;SDS011;14852;51.910;8.878;2022-11-20T08:30:35;13.15;;;8.30;;
26822;SDS011;14852;51.910;8.878;2022-11-20T08:33:03;13.38;;;8.48;;
26822;SDS011;14852;51.910;8.878;2022-11-20T08:35:36;12.85;;;8.38;;
26822;SDS011;14852;51.910;8.878;2022-11-20T08:38:03;13.02;;;8.48;;
26822;SDS011;14852;51.910;8.878;2022-11-20T08:40:30;11.75;;;7.95;;
26822;SDS011;14852;51.910;8.878;2022-11-20T08:42:57;13.55;;;8.93;;
26822;SDS011;14852;51.910;8.878;2022-11-20T08:45:23;12.30;;;9.25;;
26822;SDS011;14852;51.910;8.878;2022-11-20T08:47:48;12.35;;;8.55;;
26822;SDS011;14852;51.910;8.878;2022-11-20T08:50:15;14.23;;;9.93;;
26822;SDS011;14852;51.910;8.878;2022-11-20T08:52:42;14.02;;;8.82;;
26822;SDS011;14852;51.910;8.878;2022-11-20T08:55:08;14.05;;;8.80;;
26822;SDS011;14852;51.910;8.878;2022-11-20T08:57:35;14.13;;;9.30;;
26822;SDS011;14852;51.910;8.878;2022-11-20T09:00:03;12.73;;;8.98;;
26822;SDS011;14852;51.910;8.878;2022-11-20T09:02:30;15.07;;;9.65;;
26822;SDS011;14852;51.910;8.878;2022-11-20T09:04:57;11.27;;;7.70;;
26822;SDS011;14852;51.910;8.878;2022-11-20T09:07:23;9.00;;;7.20;;
26822;SDS011;14852;51.910;8.878;2022-11-20T09:09:49;12.85;;;7.55;;
26822;SDS011;14852;51.910;8.878;2022-11-20T09:12:15;9.77;;;7.15;;
26822;SDS011;14852;51.910;8.878;2022-11-20T09:14:41;9.52;;;7.38;;
26822;SDS011;14852;51.910;8.878;2022-11-20T09:17:06;10.32;;;6.65;;
26822;SDS011;14852;51.910;8.878;2022-11-20T09:19:32;10.45;;;6.88;;
26822;SDS011;14852;51.910;8.878;2022-11-20T09:21:58;12.65;;;6.97;;
26822;SDS011;14852;51.910;8.878;2022-11-20T09:24:25;10.55;;;6.40;;
26822;SDS011;14852;51.910;8.878;2022-11-20T09:26:52;10.32;;;7.00;;
26822;SDS011;14852;51.910;8.878;2022-11-20T09:29:18;9.57;;;6.63;;
26822;SDS011;14852;51.910;8.878;2022-11-20T09:31:44;9.73;;;6.80;;
26822;SDS011;14852;51.910;8.878;2022-11-20T09:34:10;9.07;;;5.50;;
26822;SDS011;14852;51.910;8.878;2022-11-20T09:36:36;9.73;;;6.13;;
26822;SDS011;14852;51.910;8.878;2022-11-20T09:39:01;12.43;;;6.75;;
26822;SDS011;14852;51.910;8.878;2022-11-20T09:45:18;8.35;;;6.22;;
26822;SDS011;14852;51.910;8.878;2022-11-20T09:48:10;10.77;;;7.15;;
26822;SDS011;14852;51.910;8.878;2022-11-20T09:51:16;8.50;;;5.95;;
26822;SDS011;14852;51.910;8.878;2022-11-20T09:54:20;8.40;;;6.30;;
26822;SDS011;14852;51.910;8.878;2022-11-20T09:56:53;9.27;;;7.07;;
26822;SDS011;14852;51.910;8.878;2022-11-20T10:02:14;8.50;;;6.43;;
26822;SDS011;14852;51.910;8.878;2022-11-20T10:05:11;9.05;;;6.20;;
26822;SDS011;14852;51.910;8.878;2022-11-20T10:07:53;9.75;;;6.82;;
26822;SDS011;14852;51.910;8.878;2022-11-20T10:10:46;8.80;;;6.60;;
26822;SDS011;14852;51.910;8.878;2022-11-20T10:16:11;8.77;;;6.72;;
26822;SDS011;14852;51.910;8.878;2022-11-20T10:22:10;8.50;;;7.45;;
26822;SDS011;14852;51.910;8.878;2022-11-20T10:25:19;10.63;;;6.68;;
26822;SDS011;14852;51.910;8.878;2022-11-20T10:30:55;7.30;;;5.80;;
26822;SDS011;14852;51.910;8.878;2022-11-20T10:33:34;6.85;;;6.10;;
26822;SDS011;14852;51.910;8.878;2022-11-20T10:36:05;7.18;;;6.43;;
26822;SDS011;14852;51.910;8.878;2022-11-20T10:41:46;7.20;;;5.88;;
26822;SDS011;14852;51.910;8.878;2022-11-20T10:44:17;7.05;;;5.75;;
26822;SDS011;14852;51.910;8.878;2022-11-20T10:47:08;6.88;;;5.93;;
26822;SDS011;14852;51.910;8.878;2022-11-20T10:49:43;8.40;;;6.15;;
26822;SDS011;14852;51.910;8.878;2022-11-20T10:52:33;7.60;;;6.07;;
26822;SDS011;14852;51.910;8.878;2022-11-20T11:01:04;7.07;;;5.28;;
26822;SDS011;14852;51.910;8.878;2022-11-20T11:03:52;5.60;;;4.32;;
26822;SDS011;14852;51.910;8.878;2022-11-20T11:09:08;5.18;;;4.68;;
26822;SDS011;14852;51.910;8.878;2022-11-20T11:11:47;5.53;;;4.32;;
26822;SDS011;14852;51.910;8.878;2022-11-20T11:14:14;5.72;;;4.97;;
26822;SDS011;14852;51.910;8.878;2022-11-20T11:16:48;5.65;;;4.90;;
26822;SDS011;14852;51.910;8.878;2022-11-20T11:19:22;6.70;;;5.40;;
26822;SDS011;14852;51.910;8.878;2022-11-20T11:21:50;4.28;;;3.38;;
26822;SDS011;14852;51.910;8.878;2022-11-20T11:24:25;4.85;;;3.85;;
26822;SDS011;14852;51.910;8.878;2022-11-20T11:27:04;4.60;;;4.13;;
26822;SDS011;14852;51.910;8.878;2022-11-20T11:29:38;3.88;;;3.47;;
26822;SDS011;14852;51.910;8.878;2022-11-20T11:34:38;7.45;;;5.40;;
26822;SDS011;14852;51.910;8.878;2022-11-20T11:37:04;5.22;;;4.70;;
26822;SDS011;14852;51.910;8.878;2022-11-20T11:39:42;5.43;;;4.43;;
26822;SDS011;14852;51.910;8.878;2022-11-20T11:42:11;6.85;;;5.32;;
26822;SDS011;14852;51.910;8.878;2022-11-20T11:44:46;5.68;;;4.45;;
26822;SDS011;14852;51.910;8.878;2022-11-20T11:47:43;4.97;;;3.75;;
26822;SDS011;14852;51.910;8.878;2022-11-20T12:01:32;4.85;;;3.75;;
26822;SDS011;14852;51.910;8.878;2022-11-20T12:06:30;6.05;;;4.50;;
26822;SDS011;14852;51.910;8.878;2022-11-20T12:09:02;7.93;;;6.13;;
26822;SDS011;14852;51.910;8.878;2022-11-20T12:14:36;7.20;;;4.88;;
26822;SDS011;14852;51.910;8.878;2022-11-20T12:17:04;6.38;;;4.78;;
26822;SDS011;14852;51.910;8.878;2022-11-20T12:19:34;7.13;;;5.03;;
26822;SDS011;14852;51.910;8.878;2022-11-20T12:22:10;6.82;;;5.03;;
26822;SDS011;14852;51.910;8.878;2022-11-20T12:25:17;7.38;;;5.40;;
26822;SDS011;14852;51.910;8.878;2022-11-20T12:30:54;7.85;;;5.60;;
26822;SDS011;14852;51.910;8.878;2022-11-20T12:33:29;9.48;;;6.18;;
26822;SDS011;14852;51.910;8.878;2022-11-20T12:41:44;8.93;;;6.15;;
26822;SDS011;14852;51.910;8.878;2022-11-20T12:45:14;8.25;;;5.82;;
26822;SDS011;14852;51.910;8.878;2022-11-20T12:48:12;10.15;;;7.35;;
26822;SDS011;14852;51.910;8.878;2022-11-20T12:56:57;8.98;;;6.07;;
26822;SDS011;14852;51.910;8.878;2022-11-20T13:08:48;10.80;;;7.28;;
26822;SDS011;14852;51.910;8.878;2022-11-20T13:17:17;12.77;;;8.15;;
26822;SDS011;14852;51.910;8.878;2022-11-20T13:20:05;10.18;;;7.07;;
26822;SDS011;14852;51.910;8.878;2022-11-20T13:22:56;10.55;;;6.75;;
26822;SDS011;14852;51.910;8.878;2022-11-20T13:28:03;9.73;;;7.25;;
26822;SDS011;14852;51.910;8.878;2022-11-20T13:30:34;8.48;;;6.47;;
26822;SDS011;14852;51.910;8.878;2022-11-20T13:33:32;11.02;;;7.28;;
26822;SDS011;14852;51.910;8.878;2022-11-20T13:36:22;11.45;;;7.20;;
26822;SDS011;14852;51.910;8.878;2022-11-20T13:38:52;7.82;;;6.13;;
26822;SDS011;14852;51.910;8.878;2022-11-20T13:41:30;8.10;;;6.47;;
26822;SDS011;14852;51.910;8.878;2022-11-20T13:47:02;11.10;;;7.72;;
26822;SDS011;14852;51.910;8.878;2022-11-20T13:49:42;9.85;;;6.03;;
26822;SDS011;14852;51.910;8.878;2022-11-20T13:55:35;11.02;;;7.00;;
26822;SDS011;14852;51.910;8.878;2022-11-20T13:58:29;9.82;;;7.07;;
26822;SDS011;14852;51.910;8.878;2022-11-20T14:01:21;10.18;;;7.20;;
26822;SDS011;14852;51.910;8.878;2022-11-20T14:03:53;10.45;;;7.28;;
26822;SDS011;14852;51.910;8.878;2022-11-20T14:06:24;11.48;;;6.80;;
26822;SDS011;14852;51.910;8.878;2022-11-20T14:08:57;10.75;;;7.97;;
26822;SDS011;14852;51.910;8.878;2022-11-20T14:11:26;10.40;;;7.50;;
26822;SDS011;14852;51.910;8.878;2022-11-20T14:14:00;11.50;;;7.95;;
26822;SDS011;14852;51.910;8.878;2022-11-20T14:16:37;14.90;;;9.32;;
26822;SDS011;14852;51.910;8.878;2022-11-20T14:21:52;13.05;;;8.00;;
26822;SDS011;14852;51.910;8.878;2022-11-20T14:24:31;10.32;;;6.78;;
26822;SDS011;14852;51.910;8.878;2022-11-20T14:26:57;11.00;;;8.43;;
26822;SDS011;14852;51.910;8.878;2022-11-20T14:29:27;12.27;;;8.32;;
26822;SDS011;14852;51.910;8.878;2022-11-20T14:31:59;13.27;;;8.35;;
26822;SDS011;14852;51.910;8.878;2022-11-20T14:34:28;15.60;;;8.38;;
26822;SDS011;14852;51.910;8.878;2022-11-20T14:37:01;11.48;;;7.95;;
26822;SDS011;14852;51.910;8.878;2022-11-20T14:39:36;12.10;;;8.13;;
26822;SDS011;14852;51.910;8.878;2022-11-20T14:42:16;13.77;;;8.20;;
26822;SDS011;14852;51.910;8.878;2022-11-20T14:44:50;12.93;;;8.57;;
26822;SDS011;14852;51.910;8.878;2022-11-20T14:47:22;12.45;;;8.35;;
26822;SDS011;14852;51.910;8.878;2022-11-20T14:49:52;11.60;;;7.85;;
26822;SDS011;14852;51.910;8.878;2022-11-20T14:52:23;11.52;;;8.88;;
26822;SDS011;14852;51.910;8.878;2022-11-20T14:54:53;10.32;;;7.75;;
26822;SDS011;14852;51.910;8.878;2022-11-20T14:57:30;12.02;;;8.32;;
26822;SDS011;14852;51.910;8.878;2022-11-20T15:02:43;12.43;;;7.75;;
26822;SDS011;14852;51.910;8.878;2022-11-20T15:05:12;10.90;;;7.57;;
26822;SDS011;14852;51.910;8.878;2022-11-20T15:07:42;12.73;;;7.82;;
26822;SDS011;14852;51.910;8.878;2022-11-20T15:10:33;11.23;;;7.97;;
26822;SDS011;14852;51.910;8.878;2022-11-20T15:13:03;10.27;;;7.75;;
26822;SDS011;14852;51.910;8.878;2022-11-20T15:18:16;10.38;;;7.05;;
26822;SDS011;14852;51.910;8.878;2022-11-20T15:20:46;8.68;;;6.45;;
26822;SDS011;14852;51.910;8.878;2022-11-20T15:23:13;10.55;;;7.63;;
26822;SDS011;14852;51.910;8.878;2022-11-20T15:25:43;8.48;;;6.15;;
26822;SDS011;14852;51.910;8.878;2022-11-20T15:30:48;10.82;;;6.72;;
26822;SDS011;14852;51.910;8.878;2022-11-20T15:33:15;11.20;;;6.38;;
26822;SDS011;14852;51.910;8.878;2022-11-20T15:35:42;9.20;;;6.35;;
26822;SDS011;14852;51.910;8.878;2022-11-20T15:38:09;9.02;;;6.43;;
26822;SDS011;14852;51.910;8.878;2022-11-20T15:40:35;8.40;;;5.50;;
26822;SDS011;14852;51.910;8.878;2022-11-20T15:43:01;7.50;;;5.68;;
26822;SDS011;14852;51.910;8.878;2022-11-20T15:45:36;9.10;;;6.45;;
26822;SDS011;14852;51.910;8.878;2022-11-20T15:53:36;9.07;;;5.65;;
26822;SDS011;14852;51.910;8.878;2022-11-20T15:56:03;11.48;;;6.32;;
26822;SDS011;14852;51.910;8.878;2022-11-20T15:58:29;9.05;;;5.85;;
26822;SDS011;14852;51.910;8.878;2022-11-20T16:00:55;9.63;;;6.60;;
26822;SDS011;14852;51.910;8.878;2022-11-20T16:03:21;10.73;;;7.68;;
26822;SDS011;14852;51.910;8.878;2022-11-20T16:05:47;10.23;;;6.97;;
26822;SDS011;14852;51.910;8.878;2022-11-20T16:08:13;9.85;;;7.28;;
26822;SDS011;14852;51.910;8.878;2022-11-20T16:10:40;9.07;;;5.95;;
26822;SDS011;14852;51.910;8.878;2022-11-20T16:13:13;8.90;;;6.43;;
26822;SDS011;14852;51.910;8.878;2022-11-20T16:16:04;10.90;;;8.30;;
26822;SDS011;14852;51.910;8.878;2022-11-20T16:18:34;9.18;;;6.18;;
26822;SDS011;14852;51.910;8.878;2022-11-20T16:21:00;8.38;;;6.10;;
26822;SDS011;14852;51.910;8.878;2022-11-20T16:23:26;10.23;;;6.82;;
26822;SDS011;14852;51.910;8.878;2022-11-20T16:25:51;9.80;;;7.15;;
26822;SDS011;14852;51.910;8.878;2022-11-20T16:28:17;9.68;;;7.38;;
26822;SDS011;14852;51.910;8.878;2022-11-20T16:30:43;11.95;;;8.98;;
26822;SDS011;14852;51.910;8.878;2022-11-20T16:33:19;10.32;;;8.60;;
26822;SDS011;14852;51.910;8.878;2022-11-20T16:35:44;10.52;;;7.95;;
26822;SDS011;14852;51.910;8.878;2022-11-20T16:38:10;10.98;;;8.15;;
26822;SDS011;14852;51.910;8.878;2022-11-20T16:40:36;12.45;;;9.05;;
26822;SDS011;14852;51.910;8.878;2022-11-20T16:43:09;10.82;;;8.40;;
26822;SDS011;14852;51.910;8.878;2022-11-20T16:45:41;9.73;;;7.70;;
26822;SDS011;14852;51.910;8.878;2022-11-20T16:48:12;10.85;;;8.23;;
26822;SDS011;14852;51.910;8.878;2022-11-20T16:50:44;12.55;;;9.18;;
26822;SDS011;14852;51.910;8.878;2022-11-20T16:53:15;12.65;;;8.48;;